sensor_id;sensor_type;location;lat;lon;timestamp;temperature;humidity
20125;DHT22;10223;50.862;4.360;2022-07-15T00:01:05;17.60;99.90
20125;DHT22;10223;50.862;4.360;2022-07-15T00:03:32;17.70;99.90
20125;DHT22;10223;50.862;4.360;2022-07-15T00:05:59;17.80;99.90
20125;DHT22;10223;50.862;4.360;2022-07-15T00:08:26;17.70;99.90
20125;DHT22;10223;50.862;4.360;2022-07-15T00:10:54;17.80;99.90
20125;DHT22;10223;50.862;4.360;2022-07-15T00:13:21;17.60;99.90
20125;DHT22;10223;50.862;4.360;2022-07-15T00:15:49;17.50;99.90
20125;DHT22;10223;50.862;4.360;2022-07-15T00:18:17;17.30;99.90
20125;DHT22;10223;50.862;4.360;2022-07-15T00:20:44;17.30;99.90
20125;DHT22;10223;50.862;4.360;2022-07-15T00:23:11;17.40;99.90
20125;DHT22;10223;50.862;4.360;2022-07-15T00:25:38;17.40;99.90
20125;DHT22;10223;50.862;4.360;2022-07-15T00:28:06;17.60;99.90
20125;DHT22;10223;50.862;4.360;2022-07-15T00:30:35;17.70;99.90
20125;DHT22;10223;50.862;4.360;2022-07-15T00:33:03;17.60;99.90
20125;DHT22;10223;50.862;4.360;2022-07-15T00:35:33;17.70;99.90
20125;DHT22;10223;50.862;4.360;2022-07-15T00:38:00;17.80;99.90
20125;DHT22;10223;50.862;4.360;2022-07-15T00:40:27;17.60;99.90
20125;DHT22;10223;50.862;4.360;2022-07-15T00:42:54;17.50;99.90
20125;DHT22;10223;50.862;4.360;2022-07-15T00:45:23;17.70;99.90
20125;DHT22;10223;50.862;4.360;2022-07-15T00:47:52;17.90;99.90
20125;DHT22;10223;50.862;4.360;2022-07-15T00:50:20;18.10;99.90
20125;DHT22;10223;50.862;4.360;2022-07-15T00:52:53;18.10;99.90
20125;DHT22;10223;50.862;4.360;2022-07-15T00:55:22;18.10;99.90
20125;DHT22;10223;50.862;4.360;2022-07-15T00:57:50;18.00;99.90
20125;DHT22;10223;50.862;4.360;2022-07-15T01:00:18;17.80;99.90
20125;DHT22;10223;50.862;4.360;2022-07-15T01:02:45;17.70;99.90
20125;DHT22;10223;50.862;4.360;2022-07-15T01:05:16;17.70;99.90
20125;DHT22;10223;50.862;4.360;2022-07-15T01:07:44;17.70;99.90
20125;DHT22;10223;50.862;4.360;2022-07-15T01:10:12;17.70;99.90
20125;DHT22;10223;50.862;4.360;2022-07-15T01:12:40;17.60;99.90
20125;DHT22;10223;50.862;4.360;2022-07-15T01:15:08;17.60;99.90
20125;DHT22;10223;50.862;4.360;2022-07-15T01:17:35;17.50;99.90
20125;DHT22;10223;50.862;4.360;2022-07-15T01:20:03;17.30;99.90
20125;DHT22;10223;50.862;4.360;2022-07-15T01:22:31;17.30;99.90
20125;DHT22;10223;50.862;4.360;2022-07-15T01:24:58;17.10;99.90
20125;DHT22;10223;50.862;4.360;2022-07-15T01:27:25;17.20;99.90
20125;DHT22;10223;50.862;4.360;2022-07-15T01:29:53;17.10;99.90
20125;DHT22;10223;50.862;4.360;2022-07-15T01:32:19;17.40;99.90
20125;DHT22;10223;50.862;4.360;2022-07-15T01:34:46;17.50;99.90
20125;DHT22;10223;50.862;4.360;2022-07-15T01:37:14;17.30;99.90
20125;DHT22;10223;50.862;4.360;2022-07-15T01:39:42;17.10;99.90
20125;DHT22;10223;50.862;4.360;2022-07-15T01:42:09;17.10;99.90
20125;DHT22;10223;50.862;4.360;2022-07-15T01:44:36;17.00;99.90
20125;DHT22;10223;50.862;4.360;2022-07-15T01:47:03;17.00;99.90
20125;DHT22;10223;50.862;4.360;2022-07-15T01:49:30;17.00;99.90
20125;DHT22;10223;50.862;4.360;2022-07-15T01:51:58;16.90;99.90
20125;DHT22;10223;50.862;4.360;2022-07-15T01:54:26;16.90;99.90
20125;DHT22;10223;50.862;4.360;2022-07-15T01:56:55;16.80;99.90
20125;DHT22;10223;50.862;4.360;2022-07-15T01:59:22;16.60;99.90
20125;DHT22;10223;50.862;4.360;2022-07-15T02:01:50;16.70;99.90
20125;DHT22;10223;50.862;4.360;2022-07-15T02:04:18;16.80;99.90
20125;DHT22;10223;50.862;4.360;2022-07-15T02:06:45;17.00;99.90
20125;DHT22;10223;50.862;4.360;2022-07-15T02:09:12;17.00;99.90
20125;DHT22;10223;50.862;4.360;2022-07-15T02:11:40;16.70;99.90
20125;DHT22;10223;50.862;4.360;2022-07-15T02:14:08;16.60;99.90
20125;DHT22;10223;50.862;4.360;2022-07-15T02:16:35;16.60;99.90
20125;DHT22;10223;50.862;4.360;2022-07-15T02:19:02;16.60;99.90
20125;DHT22;10223;50.862;4.360;2022-07-15T02:21:29;16.60;99.90
20125;DHT22;10223;50.862;4.360;2022-07-15T02:23:56;16.60;99.90
20125;DHT22;10223;50.862;4.360;2022-07-15T02:26:24;16.80;99.90
20125;DHT22;10223;50.862;4.360;2022-07-15T02:28:51;16.70;99.90
20125;DHT22;10223;50.862;4.360;2022-07-15T02:31:20;16.60;99.90
20125;DHT22;10223;50.862;4.360;2022-07-15T02:33:46;16.60;99.90
20125;DHT22;10223;50.862;4.360;2022-07-15T02:36:14;16.70;99.90
20125;DHT22;10223;50.862;4.360;2022-07-15T02:38:41;16.70;99.90
20125;DHT22;10223;50.862;4.360;2022-07-15T02:41:08;16.80;99.90
20125;DHT22;10223;50.862;4.360;2022-07-15T02:43:37;16.70;99.90
20125;DHT22;10223;50.862;4.360;2022-07-15T02:46:04;16.70;99.90
20125;DHT22;10223;50.862;4.360;2022-07-15T02:48:32;16.80;99.90
20125;DHT22;10223;50.862;4.360;2022-07-15T02:50:59;16.90;99.90
20125;DHT22;10223;50.862;4.360;2022-07-15T02:53:26;16.80;99.90
20125;DHT22;10223;50.862;4.360;2022-07-15T02:55:55;16.80;99.90
20125;DHT22;10223;50.862;4.360;2022-07-15T02:58:23;16.70;99.90
20125;DHT22;10223;50.862;4.360;2022-07-15T03:00:50;16.70;99.90
20125;DHT22;10223;50.862;4.360;2022-07-15T03:03:18;16.70;99.90
20125;DHT22;10223;50.862;4.360;2022-07-15T03:05:46;16.90;99.90
20125;DHT22;10223;50.862;4.360;2022-07-15T03:08:14;16.90;99.90
20125;DHT22;10223;50.862;4.360;2022-07-15T03:10:41;16.90;99.90
20125;DHT22;10223;50.862;4.360;2022-07-15T03:13:08;17.00;99.90
20125;DHT22;10223;50.862;4.360;2022-07-15T03:15:35;17.10;99.90
20125;DHT22;10223;50.862;4.360;2022-07-15T03:18:02;17.10;99.90
20125;DHT22;10223;50.862;4.360;2022-07-15T03:20:29;17.10;99.90
20125;DHT22;10223;50.862;4.360;2022-07-15T03:22:57;17.10;99.90
20125;DHT22;10223;50.862;4.360;2022-07-15T03:25:24;17.10;99.90
20125;DHT22;10223;50.862;4.360;2022-07-15T03:27:51;17.20;99.90
20125;DHT22;10223;50.862;4.360;2022-07-15T03:30:18;17.30;99.90
20125;DHT22;10223;50.862;4.360;2022-07-15T03:32:46;17.40;99.90
20125;DHT22;10223;50.862;4.360;2022-07-15T03:35:13;17.30;99.90
20125;DHT22;10223;50.862;4.360;2022-07-15T03:37:40;17.30;99.90
20125;DHT22;10223;50.862;4.360;2022-07-15T03:40:10;17.20;99.90
20125;DHT22;10223;50.862;4.360;2022-07-15T03:42:37;17.10;99.90
20125;DHT22;10223;50.862;4.360;2022-07-15T03:45:05;17.10;99.90
20125;DHT22;10223;50.862;4.360;2022-07-15T03:47:32;17.00;99.90
20125;DHT22;10223;50.862;4.360;2022-07-15T03:49:59;16.90;99.90
20125;DHT22;10223;50.862;4.360;2022-07-15T03:52:25;17.00;99.90
20125;DHT22;10223;50.862;4.360;2022-07-15T03:54:52;17.10;99.90
20125;DHT22;10223;50.862;4.360;2022-07-15T03:57:20;17.10;99.90
20125;DHT22;10223;50.862;4.360;2022-07-15T03:59:50;17.20;99.90
20125;DHT22;10223;50.862;4.360;2022-07-15T04:02:17;17.30;99.90
20125;DHT22;10223;50.862;4.360;2022-07-15T04:04:44;17.20;99.90
20125;DHT22;10223;50.862;4.360;2022-07-15T04:07:11;17.00;99.90
20125;DHT22;10223;50.862;4.360;2022-07-15T04:09:38;17.10;99.90
20125;DHT22;10223;50.862;4.360;2022-07-15T04:12:05;17.10;99.90
20125;DHT22;10223;50.862;4.360;2022-07-15T04:14:33;17.30;99.90
20125;DHT22;10223;50.862;4.360;2022-07-15T04:17:00;17.30;99.90
20125;DHT22;10223;50.862;4.360;2022-07-15T04:19:28;17.40;99.90
20125;DHT22;10223;50.862;4.360;2022-07-15T04:21:55;17.20;99.90
20125;DHT22;10223;50.862;4.360;2022-07-15T04:24:21;17.10;99.90
20125;DHT22;10223;50.862;4.360;2022-07-15T04:26:48;17.20;99.90
20125;DHT22;10223;50.862;4.360;2022-07-15T04:29:15;17.10;99.90
20125;DHT22;10223;50.862;4.360;2022-07-15T04:31:43;17.20;99.90
20125;DHT22;10223;50.862;4.360;2022-07-15T04:34:10;17.20;99.90
20125;DHT22;10223;50.862;4.360;2022-07-15T04:36:37;17.20;99.90
20125;DHT22;10223;50.862;4.360;2022-07-15T04:39:04;17.40;99.90
20125;DHT22;10223;50.862;4.360;2022-07-15T04:41:31;17.30;99.90
20125;DHT22;10223;50.862;4.360;2022-07-15T04:43:58;17.30;99.90
20125;DHT22;10223;50.862;4.360;2022-07-15T04:46:25;17.00;99.90
20125;DHT22;10223;50.862;4.360;2022-07-15T04:48:53;17.00;99.90
20125;DHT22;10223;50.862;4.360;2022-07-15T04:51:37;17.00;99.90
20125;DHT22;10223;50.862;4.360;2022-07-15T04:54:04;17.00;99.90
20125;DHT22;10223;50.862;4.360;2022-07-15T04:56:31;17.00;99.90
20125;DHT22;10223;50.862;4.360;2022-07-15T04:58:58;16.90;99.90
20125;DHT22;10223;50.862;4.360;2022-07-15T05:01:24;16.60;99.90
20125;DHT22;10223;50.862;4.360;2022-07-15T05:03:53;16.40;99.90
20125;DHT22;10223;50.862;4.360;2022-07-15T05:06:19;16.40;99.90
20125;DHT22;10223;50.862;4.360;2022-07-15T05:08:46;16.60;99.90
20125;DHT22;10223;50.862;4.360;2022-07-15T05:11:13;16.70;99.90
20125;DHT22;10223;50.862;4.360;2022-07-15T05:13:40;16.80;99.90
20125;DHT22;10223;50.862;4.360;2022-07-15T05:16:07;16.70;99.90
20125;DHT22;10223;50.862;4.360;2022-07-15T05:18:34;16.70;99.90
20125;DHT22;10223;50.862;4.360;2022-07-15T05:21:02;16.80;99.90
20125;DHT22;10223;50.862;4.360;2022-07-15T05:23:30;16.90;99.90
20125;DHT22;10223;50.862;4.360;2022-07-15T05:25:56;16.80;99.90
20125;DHT22;10223;50.862;4.360;2022-07-15T05:28:23;16.80;99.90
20125;DHT22;10223;50.862;4.360;2022-07-15T05:30:50;16.90;99.90
20125;DHT22;10223;50.862;4.360;2022-07-15T05:33:17;17.20;99.90
20125;DHT22;10223;50.862;4.360;2022-07-15T05:35:44;17.20;99.90
20125;DHT22;10223;50.862;4.360;2022-07-15T05:38:12;17.40;99.90
20125;DHT22;10223;50.862;4.360;2022-07-15T05:40:39;17.20;99.90
20125;DHT22;10223;50.862;4.360;2022-07-15T05:43:06;17.10;99.90
20125;DHT22;10223;50.862;4.360;2022-07-15T05:45:33;16.90;99.90
20125;DHT22;10223;50.862;4.360;2022-07-15T05:48:00;16.90;99.90
20125;DHT22;10223;50.862;4.360;2022-07-15T05:50:27;17.00;99.90
20125;DHT22;10223;50.862;4.360;2022-07-15T05:52:53;16.90;99.90
20125;DHT22;10223;50.862;4.360;2022-07-15T05:55:22;17.00;99.90
20125;DHT22;10223;50.862;4.360;2022-07-15T05:57:49;16.90;99.90
20125;DHT22;10223;50.862;4.360;2022-07-15T06:00:16;17.00;99.90
20125;DHT22;10223;50.862;4.360;2022-07-15T06:02:42;17.10;99.90
20125;DHT22;10223;50.862;4.360;2022-07-15T06:05:10;17.00;99.90
20125;DHT22;10223;50.862;4.360;2022-07-15T06:07:37;16.90;99.90
20125;DHT22;10223;50.862;4.360;2022-07-15T06:10:05;16.90;99.90
20125;DHT22;10223;50.862;4.360;2022-07-15T06:12:34;17.00;99.90
20125;DHT22;10223;50.862;4.360;2022-07-15T06:15:01;16.90;99.90
20125;DHT22;10223;50.862;4.360;2022-07-15T06:17:28;17.00;99.90
20125;DHT22;10223;50.862;4.360;2022-07-15T06:19:56;17.10;99.90
20125;DHT22;10223;50.862;4.360;2022-07-15T06:22:22;17.20;99.90
20125;DHT22;10223;50.862;4.360;2022-07-15T06:24:49;17.40;99.90
20125;DHT22;10223;50.862;4.360;2022-07-15T06:27:16;17.40;99.90
20125;DHT22;10223;50.862;4.360;2022-07-15T06:29:44;17.40;99.90
20125;DHT22;10223;50.862;4.360;2022-07-15T06:32:11;17.40;99.90
20125;DHT22;10223;50.862;4.360;2022-07-15T06:34:38;17.30;99.90
20125;DHT22;10223;50.862;4.360;2022-07-15T06:37:05;17.50;99.90
20125;DHT22;10223;50.862;4.360;2022-07-15T06:39:32;17.60;99.90
20125;DHT22;10223;50.862;4.360;2022-07-15T06:41:59;17.70;99.90
20125;DHT22;10223;50.862;4.360;2022-07-15T06:44:26;17.80;99.90
20125;DHT22;10223;50.862;4.360;2022-07-15T06:46:54;17.70;99.90
20125;DHT22;10223;50.862;4.360;2022-07-15T06:49:21;17.70;99.90
20125;DHT22;10223;50.862;4.360;2022-07-15T06:51:48;17.60;99.90
20125;DHT22;10223;50.862;4.360;2022-07-15T06:54:16;17.80;99.90
20125;DHT22;10223;50.862;4.360;2022-07-15T06:56:44;18.00;99.90
20125;DHT22;10223;50.862;4.360;2022-07-15T06:59:11;18.20;99.90
20125;DHT22;10223;50.862;4.360;2022-07-15T07:01:37;18.10;99.90
20125;DHT22;10223;50.862;4.360;2022-07-15T07:04:06;18.30;99.90
20125;DHT22;10223;50.862;4.360;2022-07-15T07:06:33;18.00;99.90
20125;DHT22;10223;50.862;4.360;2022-07-15T07:09:00;18.00;99.90
20125;DHT22;10223;50.862;4.360;2022-07-15T07:11:27;18.30;99.90
20125;DHT22;10223;50.862;4.360;2022-07-15T07:13:54;18.50;99.90
20125;DHT22;10223;50.862;4.360;2022-07-15T07:16:22;18.90;99.90
20125;DHT22;10223;50.862;4.360;2022-07-15T07:18:48;19.20;99.90
20125;DHT22;10223;50.862;4.360;2022-07-15T07:21:18;18.90;99.90
20125;DHT22;10223;50.862;4.360;2022-07-15T07:23:45;18.70;99.90
20125;DHT22;10223;50.862;4.360;2022-07-15T07:26:15;18.50;99.90
20125;DHT22;10223;50.862;4.360;2022-07-15T07:28:42;18.40;99.90
20125;DHT22;10223;50.862;4.360;2022-07-15T07:31:11;18.80;99.90
20125;DHT22;10223;50.862;4.360;2022-07-15T07:33:39;18.90;99.90
20125;DHT22;10223;50.862;4.360;2022-07-15T07:36:07;19.10;99.90
20125;DHT22;10223;50.862;4.360;2022-07-15T07:38:36;19.20;99.90
20125;DHT22;10223;50.862;4.360;2022-07-15T07:41:03;19.20;99.90
20125;DHT22;10223;50.862;4.360;2022-07-15T07:43:30;19.30;99.90
20125;DHT22;10223;50.862;4.360;2022-07-15T07:45:58;20.00;99.90
20125;DHT22;10223;50.862;4.360;2022-07-15T07:48:25;20.30;99.90
20125;DHT22;10223;50.862;4.360;2022-07-15T07:50:52;20.60;99.90
20125;DHT22;10223;50.862;4.360;2022-07-15T07:53:19;21.10;99.90
20125;DHT22;10223;50.862;4.360;2022-07-15T07:55:49;20.80;99.90
20125;DHT22;10223;50.862;4.360;2022-07-15T07:58:17;21.50;99.90
20125;DHT22;10223;50.862;4.360;2022-07-15T08:00:46;21.30;99.90
20125;DHT22;10223;50.862;4.360;2022-07-15T08:03:13;21.40;99.90
20125;DHT22;10223;50.862;4.360;2022-07-15T08:05:40;21.60;99.90
20125;DHT22;10223;50.862;4.360;2022-07-15T08:08:09;21.20;99.90
20125;DHT22;10223;50.862;4.360;2022-07-15T08:10:36;20.70;99.90
20125;DHT22;10223;50.862;4.360;2022-07-15T08:13:05;21.20;99.90
20125;DHT22;10223;50.862;4.360;2022-07-15T08:15:32;21.30;99.90
20125;DHT22;10223;50.862;4.360;2022-07-15T08:17:58;21.00;99.90
20125;DHT22;10223;50.862;4.360;2022-07-15T08:20:27;21.30;99.90
20125;DHT22;10223;50.862;4.360;2022-07-15T08:22:54;21.80;99.90
20125;DHT22;10223;50.862;4.360;2022-07-15T08:25:25;22.50;99.90
20125;DHT22;10223;50.862;4.360;2022-07-15T08:27:52;22.60;99.90
20125;DHT22;10223;50.862;4.360;2022-07-15T08:30:21;22.60;99.90
20125;DHT22;10223;50.862;4.360;2022-07-15T08:32:47;23.30;99.90
20125;DHT22;10223;50.862;4.360;2022-07-15T08:35:14;23.00;99.90
20125;DHT22;10223;50.862;4.360;2022-07-15T08:37:41;23.60;99.90
20125;DHT22;10223;50.862;4.360;2022-07-15T08:40:10;23.60;99.90
20125;DHT22;10223;50.862;4.360;2022-07-15T08:42:38;24.60;99.90
20125;DHT22;10223;50.862;4.360;2022-07-15T08:45:08;25.00;99.90
20125;DHT22;10223;50.862;4.360;2022-07-15T08:47:38;24.70;99.90
20125;DHT22;10223;50.862;4.360;2022-07-15T08:50:06;24.80;99.90
20125;DHT22;10223;50.862;4.360;2022-07-15T08:52:38;25.00;99.90
20125;DHT22;10223;50.862;4.360;2022-07-15T08:55:06;24.40;99.90
20125;DHT22;10223;50.862;4.360;2022-07-15T08:57:34;23.50;99.90
20125;DHT22;10223;50.862;4.360;2022-07-15T09:00:01;24.30;99.90
20125;DHT22;10223;50.862;4.360;2022-07-15T09:02:28;25.70;99.90
20125;DHT22;10223;50.862;4.360;2022-07-15T09:05:20;25.30;99.90
20125;DHT22;10223;50.862;4.360;2022-07-15T09:07:53;24.80;99.90
20125;DHT22;10223;50.862;4.360;2022-07-15T09:10:21;24.00;99.90
20125;DHT22;10223;50.862;4.360;2022-07-15T09:12:51;23.70;99.90
20125;DHT22;10223;50.862;4.360;2022-07-15T09:15:39;24.70;99.90
20125;DHT22;10223;50.862;4.360;2022-07-15T09:18:12;25.90;99.90
20125;DHT22;10223;50.862;4.360;2022-07-15T09:20:42;26.20;99.90
20125;DHT22;10223;50.862;4.360;2022-07-15T09:23:10;26.50;99.90
20125;DHT22;10223;50.862;4.360;2022-07-15T09:25:39;26.60;99.90
20125;DHT22;10223;50.862;4.360;2022-07-15T09:28:07;27.00;99.90
20125;DHT22;10223;50.862;4.360;2022-07-15T09:30:36;27.30;99.90
20125;DHT22;10223;50.862;4.360;2022-07-15T09:33:22;26.70;99.90
20125;DHT22;10223;50.862;4.360;2022-07-15T09:36:09;25.80;99.90
20125;DHT22;10223;50.862;4.360;2022-07-15T09:38:40;26.30;99.90
20125;DHT22;10223;50.862;4.360;2022-07-15T09:41:12;25.10;99.90
20125;DHT22;10223;50.862;4.360;2022-07-15T09:43:47;24.70;99.90
20125;DHT22;10223;50.862;4.360;2022-07-15T09:46:15;24.40;99.90
20125;DHT22;10223;50.862;4.360;2022-07-15T09:48:43;23.60;99.90
20125;DHT22;10223;50.862;4.360;2022-07-15T09:51:12;23.80;99.90
20125;DHT22;10223;50.862;4.360;2022-07-15T09:53:39;24.20;99.90
20125;DHT22;10223;50.862;4.360;2022-07-15T09:56:08;24.60;99.90
20125;DHT22;10223;50.862;4.360;2022-07-15T09:58:37;25.10;99.90
20125;DHT22;10223;50.862;4.360;2022-07-15T10:01:06;25.30;99.90
20125;DHT22;10223;50.862;4.360;2022-07-15T10:03:33;25.10;99.90
20125;DHT22;10223;50.862;4.360;2022-07-15T10:06:01;25.20;99.90
20125;DHT22;10223;50.862;4.360;2022-07-15T10:08:31;25.50;99.90
20125;DHT22;10223;50.862;4.360;2022-07-15T10:10:58;25.40;99.90
20125;DHT22;10223;50.862;4.360;2022-07-15T10:13:37;25.20;99.90
20125;DHT22;10223;50.862;4.360;2022-07-15T10:16:16;24.70;99.90
20125;DHT22;10223;50.862;4.360;2022-07-15T10:18:56;24.30;99.90
20125;DHT22;10223;50.862;4.360;2022-07-15T10:21:34;24.10;99.90
20125;DHT22;10223;50.862;4.360;2022-07-15T10:24:30;23.90;99.90
20125;DHT22;10223;50.862;4.360;2022-07-15T10:27:09;24.40;99.90
20125;DHT22;10223;50.862;4.360;2022-07-15T10:29:39;23.90;99.90
20125;DHT22;10223;50.862;4.360;2022-07-15T10:32:06;24.50;99.90
20125;DHT22;10223;50.862;4.360;2022-07-15T10:34:34;24.80;99.90
20125;DHT22;10223;50.862;4.360;2022-07-15T10:37:04;24.40;99.90
20125;DHT22;10223;50.862;4.360;2022-07-15T10:40:04;24.60;99.90
20125;DHT22;10223;50.862;4.360;2022-07-15T10:42:57;25.20;99.90
20125;DHT22;10223;50.862;4.360;2022-07-15T10:45:24;25.50;99.90
20125;DHT22;10223;50.862;4.360;2022-07-15T10:48:24;25.80;99.90
20125;DHT22;10223;50.862;4.360;2022-07-15T10:50:52;25.70;99.90
20125;DHT22;10223;50.862;4.360;2022-07-15T10:53:21;26.50;99.90
20125;DHT22;10223;50.862;4.360;2022-07-15T10:55:50;26.70;99.90
20125;DHT22;10223;50.862;4.360;2022-07-15T10:58:17;26.20;99.90
20125;DHT22;10223;50.862;4.360;2022-07-15T11:00:44;26.90;99.90
20125;DHT22;10223;50.862;4.360;2022-07-15T11:03:14;26.60;99.90
20125;DHT22;10223;50.862;4.360;2022-07-15T11:06:02;26.50;99.90
20125;DHT22;10223;50.862;4.360;2022-07-15T11:08:53;26.00;99.90
20125;DHT22;10223;50.862;4.360;2022-07-15T11:11:48;26.20;99.90
20125;DHT22;10223;50.862;4.360;2022-07-15T11:14:47;26.20;99.90
20125;DHT22;10223;50.862;4.360;2022-07-15T11:17:17;25.90;99.90
20125;DHT22;10223;50.862;4.360;2022-07-15T11:19:48;24.70;99.90
20125;DHT22;10223;50.862;4.360;2022-07-15T11:22:17;24.80;99.90
20125;DHT22;10223;50.862;4.360;2022-07-15T11:24:45;24.80;99.90
20125;DHT22;10223;50.862;4.360;2022-07-15T11:27:12;25.70;99.90
20125;DHT22;10223;50.862;4.360;2022-07-15T11:29:45;25.90;99.90
20125;DHT22;10223;50.862;4.360;2022-07-15T11:32:13;26.50;99.90
20125;DHT22;10223;50.862;4.360;2022-07-15T11:34:43;26.20;99.90
20125;DHT22;10223;50.862;4.360;2022-07-15T11:37:11;26.70;99.90
20125;DHT22;10223;50.862;4.360;2022-07-15T11:39:46;26.10;99.90
20125;DHT22;10223;50.862;4.360;2022-07-15T11:42:20;26.20;99.90
20125;DHT22;10223;50.862;4.360;2022-07-15T11:45:06;26.60;99.80
20125;DHT22;10223;50.862;4.360;2022-07-15T11:47:33;26.40;99.50
20125;DHT22;10223;50.862;4.360;2022-07-15T11:50:03;26.70;99.80
20125;DHT22;10223;50.862;4.360;2022-07-15T11:52:30;27.60;98.70
20125;DHT22;10223;50.862;4.360;2022-07-15T11:54:58;27.60;98.40
20125;DHT22;10223;50.862;4.360;2022-07-15T11:57:32;27.50;98.40
20125;DHT22;10223;50.862;4.360;2022-07-15T12:00:00;27.40;98.40
20125;DHT22;10223;50.862;4.360;2022-07-15T12:02:28;27.20;98.70
20125;DHT22;10223;50.862;4.360;2022-07-15T12:05:02;27.50;98.70
20125;DHT22;10223;50.862;4.360;2022-07-15T12:07:39;27.40;99.00
20125;DHT22;10223;50.862;4.360;2022-07-15T12:10:09;26.40;99.90
20125;DHT22;10223;50.862;4.360;2022-07-15T12:12:40;26.40;99.40
20125;DHT22;10223;50.862;4.360;2022-07-15T12:15:08;26.10;99.60
20125;DHT22;10223;50.862;4.360;2022-07-15T12:17:36;26.00;99.30
20125;DHT22;10223;50.862;4.360;2022-07-15T12:20:04;26.00;99.10
20125;DHT22;10223;50.862;4.360;2022-07-15T12:22:32;26.00;99.00
20125;DHT22;10223;50.862;4.360;2022-07-15T12:24:59;25.60;99.10
20125;DHT22;10223;50.862;4.360;2022-07-15T12:27:34;25.90;99.20
20125;DHT22;10223;50.862;4.360;2022-07-15T12:30:03;26.00;99.00
20125;DHT22;10223;50.862;4.360;2022-07-15T12:32:31;25.20;99.90
20125;DHT22;10223;50.862;4.360;2022-07-15T12:34:59;25.30;99.90
20125;DHT22;10223;50.862;4.360;2022-07-15T12:37:45;24.80;99.90
20125;DHT22;10223;50.862;4.360;2022-07-15T12:40:19;24.20;99.90
20125;DHT22;10223;50.862;4.360;2022-07-15T12:42:49;24.80;99.90
20125;DHT22;10223;50.862;4.360;2022-07-15T12:45:18;25.60;99.50
20125;DHT22;10223;50.862;4.360;2022-07-15T12:48:03;25.30;99.90
20125;DHT22;10223;50.862;4.360;2022-07-15T12:50:31;25.70;99.40
20125;DHT22;10223;50.862;4.360;2022-07-15T12:53:00;26.00;99.30
20125;DHT22;10223;50.862;4.360;2022-07-15T12:55:29;25.80;99.10
20125;DHT22;10223;50.862;4.360;2022-07-15T12:58:05;26.00;98.60
20125;DHT22;10223;50.862;4.360;2022-07-15T13:00:32;26.00;99.10
20125;DHT22;10223;50.862;4.360;2022-07-15T13:03:02;26.60;98.30
20125;DHT22;10223;50.862;4.360;2022-07-15T13:05:31;27.20;97.70
20125;DHT22;10223;50.862;4.360;2022-07-15T13:07:59;27.90;97.00
20125;DHT22;10223;50.862;4.360;2022-07-15T13:10:28;28.60;96.20
20125;DHT22;10223;50.862;4.360;2022-07-15T13:12:55;29.00;95.60
20125;DHT22;10223;50.862;4.360;2022-07-15T13:15:24;29.30;94.30
20125;DHT22;10223;50.862;4.360;2022-07-15T13:17:52;28.60;94.60
20125;DHT22;10223;50.862;4.360;2022-07-15T13:20:19;29.00;94.10
20125;DHT22;10223;50.862;4.360;2022-07-15T13:22:46;29.70;93.60
20125;DHT22;10223;50.862;4.360;2022-07-15T13:25:13;30.00;92.90
20125;DHT22;10223;50.862;4.360;2022-07-15T13:27:40;30.80;91.70
20125;DHT22;10223;50.862;4.360;2022-07-15T13:30:08;31.00;91.80
20125;DHT22;10223;50.862;4.360;2022-07-15T13:32:37;30.90;91.70
20125;DHT22;10223;50.862;4.360;2022-07-15T13:35:05;29.80;92.20
20125;DHT22;10223;50.862;4.360;2022-07-15T13:37:32;27.90;93.40
20125;DHT22;10223;50.862;4.360;2022-07-15T13:39:59;26.20;95.90
20125;DHT22;10223;50.862;4.360;2022-07-15T13:42:26;26.60;96.30
20125;DHT22;10223;50.862;4.360;2022-07-15T13:44:54;27.30;95.50
20125;DHT22;10223;50.862;4.360;2022-07-15T13:47:22;27.10;95.80
20125;DHT22;10223;50.862;4.360;2022-07-15T13:49:50;27.30;95.60
20125;DHT22;10223;50.862;4.360;2022-07-15T13:52:41;27.70;95.20
20125;DHT22;10223;50.862;4.360;2022-07-15T13:55:08;27.20;95.20
20125;DHT22;10223;50.862;4.360;2022-07-15T13:57:35;26.80;95.50
20125;DHT22;10223;50.862;4.360;2022-07-15T14:00:03;26.30;95.90
20125;DHT22;10223;50.862;4.360;2022-07-15T14:02:30;26.10;96.10
20125;DHT22;10223;50.862;4.360;2022-07-15T14:04:58;25.70;96.10
20125;DHT22;10223;50.862;4.360;2022-07-15T14:07:25;25.20;96.60
20125;DHT22;10223;50.862;4.360;2022-07-15T14:09:52;24.90;97.30
20125;DHT22;10223;50.862;4.360;2022-07-15T14:12:19;24.60;97.70
20125;DHT22;10223;50.862;4.360;2022-07-15T14:14:45;25.80;97.20
20125;DHT22;10223;50.862;4.360;2022-07-15T14:17:12;26.80;96.80
20125;DHT22;10223;50.862;4.360;2022-07-15T14:19:39;27.80;95.30
20125;DHT22;10223;50.862;4.360;2022-07-15T14:22:07;28.30;94.80
20125;DHT22;10223;50.862;4.360;2022-07-15T14:24:34;27.70;94.90
20125;DHT22;10223;50.862;4.360;2022-07-15T14:27:01;27.40;95.70
20125;DHT22;10223;50.862;4.360;2022-07-15T14:29:29;27.50;95.30
20125;DHT22;10223;50.862;4.360;2022-07-15T14:31:56;26.80;96.20
20125;DHT22;10223;50.862;4.360;2022-07-15T14:34:23;26.90;96.10
20125;DHT22;10223;50.862;4.360;2022-07-15T14:36:50;27.70;95.30
20125;DHT22;10223;50.862;4.360;2022-07-15T14:39:18;27.60;95.20
20125;DHT22;10223;50.862;4.360;2022-07-15T14:41:45;27.70;95.70
20125;DHT22;10223;50.862;4.360;2022-07-15T14:44:12;28.40;94.50
20125;DHT22;10223;50.862;4.360;2022-07-15T14:46:38;28.20;94.30
20125;DHT22;10223;50.862;4.360;2022-07-15T14:49:05;29.00;93.80
20125;DHT22;10223;50.862;4.360;2022-07-15T14:51:32;30.40;92.50
20125;DHT22;10223;50.862;4.360;2022-07-15T14:53:59;29.80;92.00
20125;DHT22;10223;50.862;4.360;2022-07-15T14:56:27;29.20;92.70
20125;DHT22;10223;50.862;4.360;2022-07-15T14:58:54;29.80;92.30
20125;DHT22;10223;50.862;4.360;2022-07-15T15:01:21;29.70;92.00
20125;DHT22;10223;50.862;4.360;2022-07-15T15:03:48;29.40;92.50
20125;DHT22;10223;50.862;4.360;2022-07-15T15:06:15;29.60;92.00
20125;DHT22;10223;50.862;4.360;2022-07-15T15:08:42;28.70;92.20
20125;DHT22;10223;50.862;4.360;2022-07-15T15:11:08;27.90;92.70
20125;DHT22;10223;50.862;4.360;2022-07-15T15:13:37;27.20;93.90
20125;DHT22;10223;50.862;4.360;2022-07-15T15:16:04;28.10;93.70
20125;DHT22;10223;50.862;4.360;2022-07-15T15:18:31;29.50;91.90
20125;DHT22;10223;50.862;4.360;2022-07-15T15:20:58;31.70;90.50
20125;DHT22;10223;50.862;4.360;2022-07-15T15:23:25;31.10;90.70
20125;DHT22;10223;50.862;4.360;2022-07-15T15:25:52;31.20;90.40
20125;DHT22;10223;50.862;4.360;2022-07-15T15:28:37;30.70;90.50
20125;DHT22;10223;50.862;4.360;2022-07-15T15:31:04;30.10;91.70
20125;DHT22;10223;50.862;4.360;2022-07-15T15:33:31;31.00;91.00
20125;DHT22;10223;50.862;4.360;2022-07-15T15:35:58;31.70;89.50
20125;DHT22;10223;50.862;4.360;2022-07-15T15:38:25;32.70;88.90
20125;DHT22;10223;50.862;4.360;2022-07-15T15:40:53;33.00;88.00